Auburn, CA

1:50 AM PDT on August 20, 2014 (GMT -0700)
Lincoln Regional-Harder | Change Station
CLOSE
Current Station
Airport
Location: Lincoln,
Elevation: 121 ft
Nearby Weather Stations

Elev 121 ft 38.91 °N, 121.35 °W | Updated 15 minutes ago

Clear
Clear
63 °F
Feels Like 63 °F
N
13
Wind Variable Wind from SSE
Gusts 18 mph

Today
High -- | Low -- °F
--% Chance of Precip.
Yesterday
High -- | Low -- °F
Precip. -- in
6:22 AM 7:52 PM
Waning Crescent, 23% visible
Pressure 29.79 in
Visibility 10.0 miles
Clouds Clear
Dew Point 55 °F
Humidity 77%
Rainfall 0.00 in
Snow Depth Not available.
UV 0 out of 12
Pollen 6.00 out of 12
Ozone Good
Flu Activity Not available.
METAR KLHM 200835Z AUTO 15011G16KT 10SM CLR 17/13 A2979 RMK AO1

More Conditions Fewer Conditions

Pressure 29.79 in
Visibility 10.0 miles
Clouds Clear
Dew Point 55 °F
Humidity 77%
Rainfall 0.00 in
Snow Depth Not available.
UV 0 out of 12
Pollen 6.00 out of 12
Ozone Good
Flu Activity Not available.
METAR KLHM 200835Z AUTO 15011G16KT 10SM CLR 17/13 A2979 RMK AO1

More Conditions Fewer Conditions

10-Day Weather Forecast

Almanac

Astronomy

Aug. 20, 2014 Rise Set
Actual Time 6:22 AM PDT 7:52 PM PDT
Civil Twilight 5:54 AM PDT 8:20 PM PDT
Nautical Twilight 5:20 AM PDT 8:54 PM PDT
Astronomical Twilight 4:44 AM PDT 9:29 PM PDT
Moon 2:07 AM PDT 4:40 PM PDT
Length of Visible Light 14h 26m
Length of Day
13h 29m
Tomorrow will be 2m 18s shorter.
Waning Crescent, 23% of the Moon is Illuminated
Today
Waning Crescent
Aug 25
New
Sep 2
First Quarter
Sep 8
Full
Sep 15
Last Quarter

Today's Extremes

State Highs State Lows

Community

WunderPhotos

Upload Photos

1,745,600 photos uploaded!

Nearby

Air Quality

  Air Quality AQ Index Pollutant
Yesterday Moderate
OZONE
Current Good
OZONE
Wednesday Moderate
OZONE
Thursday Moderate
OZONE
Friday Moderate
OZONE
Saturday Moderate
OZONE

Snow Depth

Station Depth Elevation
CSS Lab 5 in 6900 ft
Echo Peak 1 in 7800 ft
Hagan's Meadow 0 in 8000 ft
Forestdale Creek 0 in 8029 ft
Blue Lakes 0 in 8000 ft

Earthquake Activity

City Distance Mag. Time & Date
Mariposa, California 126 miles 2.5 4:54 AM PDT
2014-08-14
Mariposa, California 127 miles 2.7 3:31 AM PDT
2014-08-14
The Geysers, California 89 miles 2.6 8:55 PM PDT
2014-08-13
Upper Lake, California 97 miles 2.9 3:32 PM PDT
2014-08-13
Minimum magnitude displayed is 2.5.

Coastal Water Temperatures

Place Temperature
No Stations Reporting

Nearby Weather Stations